Ever Ursula — 3FCB9 — position and weather

sailwx.info

Track history (hours):
 
Tides and Currents Weather Stations Pressure Air Temp Water Temp Dewpoint Dewpoint Depression Visibility Wind Speed Wind Dir Waves Ship Positions

Ever Ursula

Last reported at 2017-Mar-29 12:28 UTC. Time now 2017-Mar-29 15:23 UTC.
Position N 22°30' E 119°44'.

Type: Ship (hazmat cat D). MMSI: 357737000.

Date/timePositionNaut miles runAvg speedWind from/ knotsBaromVisibWave heightAir tempDewpointWater temp
2017-Mar-29 12:28N 22°30' E 119°44'1718.2
2017-Mar-29 11:33N 22°31' E 120°01'1515.3
2017-Mar-29 10:33N 22°33' E 120°18'1 1.1
2017-Mar-29 09:34N 22°33' E 120°19'0 0.0
2017-Mar-29 08:33N 22°33' E 120°19'0 0.0
2017-Mar-29 07:32N 22°33' E 120°19'0 0.0
2017-Mar-29 06:32N 22°33' E 120°19'0 0.0
2017-Mar-29 05:32N 22°33' E 120°19'0 0.1
2017-Mar-29 04:32N 22°33' E 120°19'0 0.1
2017-Mar-29 03:32N 22°33' E 120°19'0 0.0
2017-Mar-29 02:32N 22°33' E 120°19'0 0.0
2017-Mar-29 01:32N 22°33' E 120°19'0 0.0
2017-Mar-29 00:32N 22°33' E 120°19'0 0.4
2017-Mar-28 23:30N 22°33' E 120°19'1 0.6
2017-Mar-28 22:33N 22°33' E 120°20'0 0.1
2017-Mar-28 21:33N 22°33' E 120°20'0 0.1
2017-Mar-28 20:33N 22°33' E 120°20'0 0.0
2017-Mar-28 19:33N 22°33' E 120°20'0 0.0
2017-Mar-28 18:33N 22°33' E 120°20'0 0.0
2017-Mar-28 17:33N 22°33' E 120°20'1 1.2
2017-Mar-28 16:33N 22°33' E 120°19'7 7.0
2017-Mar-28 15:33N 22°32' E 120°11'1312.9
2017-Mar-28 14:33N 22°43' E 120°04'16 4.8
2017-Mar-28 11:19N 22°56' E 119°55'1 1.1
2017-Mar-28 10:31N 22°55' E 119°55'1 0.6
2017-Mar-28 09:33N 22°54' E 119°55'  
2017-Mar-20 19:10N 38°40' E 122°17'1114.0
2017-Mar-20 18:23N 38°47' E 122°05'1112.3
2017-Mar-20 17:31N 38°54' E 121°56'3 0.2
2017-Mar-20 04:10N 38°58' E 121°57'4 6.5
2017-Mar-20 03:33N 38°54' E 121°56'3 3.5
2017-Mar-20 02:33N 38°50' E 121°54'3 2.5
2017-Mar-20 01:33N 38°48' E 121°54'3 3.4
2017-Mar-20 00:33N 38°45' E 121°52'8 8.1
2017-Mar-19 23:33N 38°37' E 121°48'9 9.5
2017-Mar-19 22:33N 38°29' E 121°43'9 9.2
2017-Mar-19 21:33N 38°28' E 121°31'1312.8
2017-Mar-19 20:31N 38°28' E 121°14'3311.3
2017-Mar-19 17:33N 38°36' E 120°33'1514.0
2017-Mar-19 16:29N 38°38' E 120°14'  
Track history (hours):
 
Tides and Currents Weather Stations Pressure Air Temp Water Temp Dewpoint Dewpoint Depression Visibility Wind Speed Wind Dir Waves Ship Positions

Ever Ursula

Last reported at 2017-Mar-29 12:28 UTC. Time now 2017-Mar-29 15:23 UTC.
Position N 22°30' E 119°44'.

Type: Ship (hazmat cat D). MMSI: 357737000.

Date/timePositionNaut miles runAvg speedWind from/ knotsBaromVisibWave heightAir tempDewpointWater temp
2017-Mar-29 12:28N 22°30' E 119°44'1718.2
2017-Mar-29 11:33N 22°31' E 120°01'1515.3
2017-Mar-29 10:33N 22°33' E 120°18'1 1.1
2017-Mar-29 09:34N 22°33' E 120°19'0 0.0
2017-Mar-29 08:33N 22°33' E 120°19'0 0.0
2017-Mar-29 07:32N 22°33' E 120°19'0 0.0
2017-Mar-29 06:32N 22°33' E 120°19'0 0.0
2017-Mar-29 05:32N 22°33' E 120°19'0 0.1
2017-Mar-29 04:32N 22°33' E 120°19'0 0.1
2017-Mar-29 03:32N 22°33' E 120°19'0 0.0
2017-Mar-29 02:32N 22°33' E 120°19'0 0.0
2017-Mar-29 01:32N 22°33' E 120°19'0 0.0
2017-Mar-29 00:32N 22°33' E 120°19'0 0.4
2017-Mar-28 23:30N 22°33' E 120°19'1 0.6
2017-Mar-28 22:33N 22°33' E 120°20'0 0.1
2017-Mar-28 21:33N 22°33' E 120°20'0 0.1
2017-Mar-28 20:33N 22°33' E 120°20'0 0.0
2017-Mar-28 19:33N 22°33' E 120°20'0 0.0
2017-Mar-28 18:33N 22°33' E 120°20'0 0.0
2017-Mar-28 17:33N 22°33' E 120°20'1 1.2
2017-Mar-28 16:33N 22°33' E 120°19'7 7.0
2017-Mar-28 15:33N 22°32' E 120°11'1312.9
2017-Mar-28 14:33N 22°43' E 120°04'16 4.8
2017-Mar-28 11:19N 22°56' E 119°55'1 1.1
2017-Mar-28 10:31N 22°55' E 119°55'1 0.6
2017-Mar-28 09:33N 22°54' E 119°55'  
2017-Mar-20 19:10N 38°40' E 122°17'1114.0
2017-Mar-20 18:23N 38°47' E 122°05'1112.3
2017-Mar-20 17:31N 38°54' E 121°56'3 0.2
2017-Mar-20 04:10N 38°58' E 121°57'4 6.5
2017-Mar-20 03:33N 38°54' E 121°56'3 3.5
2017-Mar-20 02:33N 38°50' E 121°54'3 2.5
2017-Mar-20 01:33N 38°48' E 121°54'3 3.4
2017-Mar-20 00:33N 38°45' E 121°52'8 8.1
2017-Mar-19 23:33N 38°37' E 121°48'9 9.5
2017-Mar-19 22:33N 38°29' E 121°43'9 9.2
2017-Mar-19 21:33N 38°28' E 121°31'1312.8
2017-Mar-19 20:31N 38°28' E 121°14'3311.3
2017-Mar-19 17:33N 38°36' E 120°33'1514.0
2017-Mar-19 16:29N 38°38' E 120°14'  

Dump ship's entire track history